Aérodrome :
LOGIN :

S'inscrire | Disclaimer

   EN    FR    IT 

 










Légende :    VFR   VFR Marginal   IFR   IFR Intensif   IFR Très Intensif
Visi : 
Plafond : 
>= 8 km
>= 3000ft
5 à 8 km
1000 à 3000 ft
1500m à 5 km
500 à 1000 ft
800 à 1500m
200 à 500 ft
< 800m
< 200 ft
Symboles :   Orages  Brouillard  Fortes neiges  Fortes précipitations  Vent > 20 kt
SIGMETs :   Divers  Orages  Givrage  Turbulence  Onde Orograph.  Cendres Volcan.







- Altitude de l'aérodrome : 913 ft
- Voir les cartes d'approche


LFSX - Luxeuil

DERNIER METAR :
  • 231530Z AUTO 24012KT 210V280 CAVOK 14/03 Q1005 TEMPO 24025G35KT BECMG RA BKN010 OVC020

METARs EXPIRÉS :
  • 231500Z AUTO 23017KT CAVOK 14/02 Q1005 TEMPO 24025G35KT
  • 231430Z AUTO 23017G28KT CAVOK 15/01 Q1005 NOSIG
  • 231400Z AUTO 23018KT CAVOK 15/01 Q1005 TEMPO 22020G30KT
  • 231330Z AUTO 23020G31KT 190V270 CAVOK 15/01 Q1006 NOSIG
  • 231300Z AUTO 22019KT CAVOK 15/M00 Q1006 TEMPO 22020G30KT

TAF TAF LFSX
Valide du 23 à 15h jusqu'au 24 à 15h UTC


231400Z 2315/2415 24020KT CAVOK
TEMPO 2315/2317 24025G35KT
BECMG 2317/2319 RA BKN010 OVC020
TEMPO 2319/2323 24020G30KT
BECMG 2323/2401 NSW SCT030
TEMPO 2412/2415 SHRA BKN030TCU
Pas de NOTAMs connus pour ce terrain.
3 SIGMETs publiés pour la FIR Reims (LFEE) :
 
Turbulence forte
LFEE SIGMET 3 VALID 231600/232000 LFPW
LFEE REIMS FIR/UIR SEV TURB FCST N OF N4830 SFC/FL050 MOV NE 25KT WKN=
Onde orographique forte
LFEE SIGMET 2 VALID 231600/232000 LFPW
LFEE REIMS FIR/UIR SEV MTW FCST WI N4745 E00645 - N4845 E00715 - N4845 E00745 - N4745 E00715 FL040/370 STNR INTSF=
Turbulence forte
LFEE SIGMET 1 VALID 231300/231600 LFPW
LFEE REIMS FIR/UIR SEV TURB FCST NE OF LINE N4745 E00445 - N4730 E00730 SFC/FL050 MOV NE 20KT NC=



MET'MAP, la Météo Aéronautique d'un coup d'oeil ! - Copyright ORBIFLY Décembre 2007 - Disclaimer

ORBIFLY MET'MAP TEAM :

Programmation & Développement : Alexandra Zaïnal
Conception & Développement : Baudouin d'Aumeries
Co-Programmation & Développement : Marc-Olivier Méhu
Soutien technique & logistique : Manuel Goepfert

Contact : metmap@orbifly.com




SOURCES & CREDITS :

   NOAA